Latest Weather Observations for Perth

IDW60801

Issued at 11:33 am WST Saturday 29 April 2017 (issued every 30 minutes, with the page automatically refreshed every 10 minutes)

About weather observations | Map of weather stations | Latest weather observations for WA | Other Formats
Station Details ID: 009225 Name: PERTH METRO Lat: -31.92 Lon: 115.87 Height: 24.9 m
Data from the previous 72 hours. | See also: Recent months at Perth
Date/Time
WST
Temp
°C
App
Temp
°C
Dew
Point
°C
Rel
Hum
%
Delta-T
°C
Wind Press
QNH
hPa
Press
MSL
hPa
Rain since
9am
mm
Dir  Spd
km/h
Gust
km/h
Spd
kts
Gust
kts
29/11:30am 24.5 22.9 6.3 31 9.3 ENE 4 9 2 5 1023.4 1023.3 0.0
29/11:00am 23.2 21.3 6.5 34 8.5 E 6 13 3 7 1023.7 1023.6 0.0
29/10:30am 21.7 19.7 6.4 37 7.8 E 6 13 3 7 1024.0 1023.9 0.0
29/10:00am 20.7 18.4 5.9 38 7.4 ESE 7 13 4 7 1024.1 1024.0 0.0
29/09:30am 19.3 17.1 6.4 43 6.4 ENE 7 11 4 6 1024.1 1024.0 0.0
29/09:00am 18.1 16.1 6.3 46 5.8 ENE 6 13 3 7 1024.2 1024.1 0.0
29/08:30am 16.9 15.0 6.7 51 5.0 NE 6 11 3 6 1024.3 1024.2 0.0
29/08:00am 14.8 12.8 6.1 56 4.2 NE 6 11 3 6 1024.3 1024.2 0.0
29/07:30am 12.8 11.0 5.5 61 3.4 NE 4 7 2 4 1024.1 1024.0 0.0
29/07:00am 13.3 10.8 5.0 57 3.8 ENE 7 11 4 6 1023.9 1023.8 0.0
29/06:30am 13.7 11.3 5.1 56 4.0 NE 7 15 4 8 1024.0 1023.9 0.0
29/06:00am 12.9 10.7 5.3 60 3.5 E 6 11 3 6 1023.9 1023.8 0.0
29/05:30am 11.5 9.8 6.0 69 2.6 E 4 7 2 4 1023.8 1023.7 0.0
29/05:00am 8.8 8.2 7.6 92 0.6 CALM 0 7 0 4 1023.7 1023.6 0.0
29/04:30am 9.1 8.6 7.7 91 0.7 CALM 0 0 0 0 1023.8 1023.7 0.0
29/04:00am 9.7 9.4 8.5 92 0.6 CALM 0 0 0 0 1023.6 1023.5 0.0
29/03:30am 9.9 9.6 8.8 93 0.5 CALM 0 0 0 0 1023.4 1023.3 0.0
29/03:00am 10.0 9.7 8.8 92 0.6 CALM 0 0 0 0 1023.5 1023.4 0.0
29/02:30am 10.2 10.0 9.0 92 0.6 CALM 0 0 0 0 1023.6 1023.5 0.0
29/02:00am 10.7 10.6 9.3 91 0.7 CALM 0 0 0 0 1023.7 1023.6 0.0
29/01:30am 10.9 10.8 9.5 91 0.7 CALM 0 0 0 0 1023.9 1023.8 0.0
29/01:00am 11.3 11.3 9.9 91 0.7 CALM 0 0 0 0 1023.8 1023.7 0.0
29/12:30am 11.2 11.1 9.6 90 0.8 CALM 0 0 0 0 1023.8 1023.7 0.0
29/12:00am 11.5 11.5 9.8 89 0.9 CALM 0 0 0 0 1023.9 1023.8 0.0
 
Date/Time
WST
Temp
°C
App
Temp
°C
Dew
Point
°C
Rel
Hum
%
Delta-T
°C
Wind Press
QNH
hPa
Press
MSL
hPa
Rain since
9am
mm
Dir  Spd
km/h
Gust
km/h
Spd
kts
Gust
kts
28/11:30pm 11.9 11.9 9.8 87 1.1 CALM 0 0 0 0 1024.0 1023.9 0.0
28/11:00pm 12.2 12.1 9.6 84 1.3 CALM 0 0 0 0 1024.2 1024.1 0.0
28/10:30pm 12.8 12.7 9.6 81 1.6 CALM 0 0 0 0 1024.6 1024.5 0.0
28/10:00pm 13.4 13.4 9.8 79 1.8 CALM 0 0 0 0 1024.7 1024.6 0.0
28/09:30pm 14.0 13.9 9.6 75 2.3 CALM 0 0 0 0 1024.7 1024.6 0.0
28/09:00pm 15.0 15.2 10.4 74 2.4 CALM 0 0 0 0 1024.7 1024.6 0.0
28/08:30pm 15.9 15.9 9.8 67 3.2 CALM 0 0 0 0 1024.6 1024.5 0.0
28/08:00pm 17.5 16.7 9.7 60 4.1 S 4 7 2 4 1024.4 1024.3 0.0
28/07:30pm 19.0 17.8 9.5 54 5.0 S 6 13 3 7 1024.2 1024.1 0.0
28/07:00pm 19.3 18.0 10.0 55 5.0 S 7 11 4 6 1024.1 1024.0 0.0
28/06:30pm 19.9 18.8 10.6 55 5.0 S 7 9 4 5 1023.9 1023.8 0.0
28/06:00pm 20.4 19.2 10.2 52 5.5 S 7 11 4 6 1023.7 1023.6 0.0
28/05:30pm 20.9 19.5 11.0 53 5.4 SSW 9 13 5 7 1023.4 1023.3 0.0
28/05:00pm 21.9 20.2 9.8 46 6.5 SW 9 15 5 8 1023.3 1023.2 0.0
28/04:30pm 23.0 20.4 9.4 42 7.3 SSW 13 22 7 12 1023.2 1023.1 0.0
28/04:00pm 23.5 21.1 10.2 43 7.3 SW 13 22 7 12 1023.2 1023.1 0.0
28/03:30pm 24.1 22.4 11.1 44 7.3 SW 11 22 6 12 1023.1 1023.0 0.0
28/03:00pm 24.4 21.3 8.8 37 8.4 SW 15 22 8 12 1022.9 1022.8 0.0
28/02:30pm 25.0 22.1 8.1 34 9.0 SSW 13 17 7 9 1022.8 1022.7 0.0
28/02:00pm 25.2 22.8 6.9 31 9.5 NE 9 33 5 18 1022.8 1022.7 0.0
28/01:30pm 25.9 23.7 5.5 27 10.5 SSE 6 9 3 5 1023.2 1023.1 0.0
28/01:00pm 25.5 23.8 7.6 32 9.5 SSE 6 13 3 7 1023.6 1023.5 0.0
28/12:30pm 25.6 23.6 6.3 29 10.0 NE 6 13 3 7 1024.2 1024.1 0.0
28/12:00pm 25.2 23.7 6.9 31 9.5 E 4 7 2 4 1024.8 1024.7 0.0
28/11:30am 24.5 22.3 5.3 29 9.7 NNW 6 11 3 6 1025.4 1025.3 0.0
28/11:00am 24.4 23.1 6.2 31 9.3 NE 2 7 1 4 1025.7 1025.6 0.0
28/10:30am 22.9 21.1 7.8 38 7.9 NE 7 11 4 6 1026.0 1025.9 0.0
28/10:00am 21.6 20.1 8.5 43 6.9 ENE 6 11 3 6 1026.1 1026.0 0.0
28/09:30am 19.7 17.8 7.4 45 6.3 SSE 7 11 4 6 1026.2 1026.1 0.0
28/09:00am 18.2 16.6 8.2 52 5.1 S 6 9 3 5 1026.3 1026.2 0.0
28/08:30am 16.5 15.1 9.0 61 3.9 S 6 9 3 5 1026.3 1026.2 0.0
28/08:00am 14.2 14.2 11.0 81 1.7 S 2 6 1 3 1026.2 1026.1 0.0
28/07:30am 10.4 10.2 9.2 92 0.6 CALM 0 0 0 0 1026.0 1025.9 0.0
28/07:00am 9.7 9.3 8.3 91 0.7 CALM 0 0 0 0 1025.7 1025.6 0.0
28/06:30am 9.9 9.5 8.3 90 0.8 CALM 0 0 0 0 1025.6 1025.5 0.0
28/06:00am 10.4 10.1 8.8 90 0.8 CALM 0 0 0 0 1025.4 1025.3 0.0
28/05:30am 10.2 9.5 8.5 89 0.8 S 2 7 1 4 1025.3 1025.2 0.0
28/05:00am 10.3 9.6 8.7 90 0.8 S 2 6 1 3 1025.1 1025.0 0.0
28/04:30am 10.5 10.3 8.9 90 0.8 CALM 0 0 0 0 1024.9 1024.8 0.0
28/04:00am 10.9 10.8 9.5 91 0.7 CALM 0 0 0 0 1024.7 1024.6 0.0
28/03:30am 11.3 11.3 9.9 91 0.7 CALM 0 0 0 0 1024.7 1024.6 0.0
28/03:00am 11.4 11.5 10.1 92 0.7 CALM 0 0 0 0 1024.6 1024.5 0.0
28/02:30am 11.4 11.4 9.8 90 0.8 CALM 0 0 0 0 1024.7 1024.6 0.0
28/02:00am 12.0 12.2 10.6 91 0.7 CALM 0 6 0 3 1024.6 1024.5 0.0
28/01:30am 12.3 12.5 10.7 90 0.8 CALM 0 0 0 0 1024.9 1024.8 0.0
28/01:00am 12.5 12.7 10.6 88 1.0 CALM 0 0 0 0 1024.8 1024.7 0.0
28/12:30am 12.9 13.1 10.4 85 1.3 CALM 0 0 0 0 1025.0 1024.9 0.0
28/12:00am 14.0 14.4 11.2 83 1.5 CALM 0 0 0 0 1025.0 1024.9 0.0
 
Date/Time
WST
Temp
°C
App
Temp
°C
Dew
Point
°C
Rel
Hum
%
Delta-T
°C
Wind Press
QNH
hPa
Press
MSL
hPa
Rain since
9am
mm
Dir  Spd
km/h
Gust
km/h
Spd
kts
Gust
kts
27/11:30pm 14.7 15.2 11.5 81 1.7 CALM 0 0 0 0 1025.1 1025.0 0.0
27/11:00pm 15.6 16.0 11.4 76 2.2 CALM 0 0 0 0 1025.3 1025.2 0.0
27/10:30pm 17.1 16.8 11.4 69 3.1 S 4 9 2 5 1025.4 1025.3 0.0
27/10:00pm 18.0 16.6 12.2 69 3.2 S 11 19 6 10 1025.2 1025.1 0.0
27/09:30pm 18.3 16.9 12.1 67 3.4 S 11 20 6 11 1025.4 1025.3 0.0
27/09:00pm 18.3 16.9 10.9 62 4.0 S 9 13 5 7 1025.3 1025.2 0.0
27/08:30pm 18.9 17.8 10.7 59 4.4 SSE 7 11 4 6 1025.0 1024.9 0.0
27/08:00pm 19.0 17.8 10.3 57 4.6 SSE 7 13 4 7 1024.9 1024.8 0.0
27/07:30pm 19.4 18.3 9.9 54 5.1 S 6 11 3 6 1024.7 1024.6 0.0
27/07:00pm 20.0 18.3 9.9 52 5.4 S 9 13 5 7 1024.5 1024.4 0.0
27/06:30pm 20.5 18.5 10.3 52 5.5 S 11 19 6 10 1024.4 1024.3 0.0
27/06:00pm 21.0 18.8 9.3 47 6.2 SSW 11 20 6 11 1024.1 1024.0 0.0
27/05:30pm 21.6 19.2 8.5 43 6.9 SSW 11 24 6 13 1024.0 1023.9 0.0
27/05:00pm 22.3 20.0 9.1 43 7.0 SW 11 20 6 11 1023.9 1023.8 0.0
27/04:30pm 23.3 20.0 8.2 38 8.0 SSW 15 22 8 12 1023.7 1023.6 0.0
27/04:00pm 24.2 21.3 8.2 36 8.5 SW 13 19 7 10 1023.6 1023.5 0.0
27/03:30pm 24.5 21.3 6.7 32 9.2 SW 13 19 7 10 1023.5 1023.4 0.0
27/03:00pm 25.0 22.0 6.2 30 9.7 WSW 11 17 6 9 1023.4 1023.3 0.0
27/02:30pm 25.2 22.4 6.9 31 9.6 WSW 11 19 6 10 1023.6 1023.5 0.0
27/02:00pm 25.0 22.1 6.7 31 9.5 W 11 17 6 9 1023.7 1023.6 0.0
27/01:30pm 25.7 23.1 7.8 32 9.5 WSW 11 15 6 8 1024.0 1023.9 0.0
27/01:00pm 25.8 24.7 10.0 37 8.7 SW 6 13 3 7 1024.3 1024.2 0.0
27/12:30pm 25.5 23.6 7.6 32 9.5 W 7 15 4 8 1024.8 1024.7 0.0
27/12:00pm 25.3 24.9 8.3 34 9.1 CALM 0 7 0 4 1025.3 1025.2 0.0
27/11:30am 24.5 23.2 7.6 34 8.9 NNW 4 9 2 5 1025.7 1025.6 0.0
27/11:00am 23.4 21.7 7.5 36 8.3 ESE 6 13 3 7 1026.0 1025.9 0.0
27/10:30am 22.6 21.7 9.4 43 7.1 NE 4 9 2 5 1026.4 1026.3 0.0
27/10:00am 21.3 19.9 9.5 47 6.3 ENE 7 11 4 6 1026.6 1026.5 0.0
27/09:30am 20.1 18.8 9.1 49 5.8 ENE 6 7 3 4 1026.9 1026.8 0.0
27/09:00am 18.9 17.3 8.6 51 5.3 E 7 13 4 7 1027.1 1027.0 0.0
27/08:30am 18.1 16.4 8.4 53 5.0 E 7 13 4 7 1027.1 1027.0 0.0
27/08:00am 16.4 15.8 8.9 61 3.8 E 2 9 1 5 1026.9 1026.8 0.0
27/07:30am 13.3 12.5 8.2 71 2.5 E 2 6 1 3 1026.5 1026.4 0.0
27/07:00am 13.1 12.2 7.8 70 2.6 E 2 6 1 3 1026.3 1026.2 0.0
27/06:30am 13.6 12.3 7.8 68 2.9 E 4 7 2 4 1026.2 1026.1 0.0
27/06:00am 14.2 12.5 7.7 65 3.2 E 6 13 3 7 1026.1 1026.0 0.0
27/05:30am 14.4 12.7 7.7 64 3.3 ESE 6 9 3 5 1026.0 1025.9 0.0
27/05:00am 14.5 12.9 7.8 64 3.3 E 6 9 3 5 1026.0 1025.9 0.0
27/04:30am 14.0 12.4 8.0 67 3.0 ENE 6 11 3 6 1025.8 1025.7 0.0
27/04:00am 13.0 11.8 9.4 79 1.8 SSE 6 9 3 5 1025.7 1025.6 0.0
27/03:30am 12.2 11.9 10.1 87 1.1 SSE 2 6 1 3 1025.7 1025.6 0.0
27/03:00am 12.4 12.5 10.1 86 1.2 CALM 0 0 0 0 1025.8 1025.7 0.0
27/02:30am 12.7 12.7 9.9 83 1.4 CALM 0 0 0 0 1025.8 1025.7 0.0
27/02:00am 13.4 13.5 10.2 81 1.6 CALM 0 0 0 0 1025.8 1025.7 0.0
27/01:30am 14.2 14.5 10.8 80 1.8 CALM 0 0 0 0 1025.7 1025.6 0.0
27/01:00am 14.8 15.2 11.4 80 1.8 CALM 0 0 0 0 1025.7 1025.6 0.0
27/12:30am 15.1 15.5 11.1 77 2.1 CALM 0 0 0 0 1025.6 1025.5 0.0
27/12:00am 15.0 13.9 10.0 72 2.6 SSE 6 7 3 4 1025.7 1025.6 0.0
 
Date/Time
WST
Temp
°C
App
Temp
°C
Dew
Point
°C
Rel
Hum
%
Delta-T
°C
Wind Press
QNH
hPa
Press
MSL
hPa
Rain since
9am
mm
Dir  Spd
km/h
Gust
km/h
Spd
kts
Gust
kts
26/11:30pm 15.5 15.1 9.8 69 3.0 SSE 2 7 1 4 1025.7 1025.6 0.0
26/11:00pm 16.4 15.3 10.0 66 3.3 SSE 6 11 3 6 1025.9 1025.8 0.0
26/10:30pm 16.8 15.6 10.2 65 3.5 SSE 7 9 4 5 1026.0 1025.9 0.0
26/10:00pm 17.4 15.8 10.3 63 3.8 SSE 9 15 5 8 1026.2 1026.1 0.0
26/09:30pm 17.8 16.2 10.2 61 4.0 S 9 13 5 7 1026.1 1026.0 0.0
26/09:00pm 18.5 16.5 10.1 58 4.5 S 11 19 6 10 1026.0 1025.9 0.0
26/08:30pm 18.9 16.5 10.2 57 4.7 S 13 19 7 10 1025.8 1025.7 0.0
26/08:00pm 19.5 17.2 10.5 56 4.8 SSE 13 20 7 11 1025.7 1025.6 0.0
26/07:30pm 20.2 17.7 10.9 55 5.1 SSE 15 26 8 14 1025.5 1025.4 0.0
26/07:00pm 20.4 18.6 10.8 54 5.2 S 11 17 6 9 1025.2 1025.1 0.0
26/06:30pm 20.6 18.4 10.7 53 5.4 SSE 13 20 7 11 1025.0 1024.9 0.0
26/06:00pm 20.7 19.4 11.1 54 5.3 S 9 13 5 7 1024.6 1024.5 0.0
26/05:30pm 21.0 18.9 11.3 54 5.4 SSW 13 20 7 11 1024.5 1024.4 0.0
26/05:00pm 21.6 19.8 10.7 50 6.0 SSW 11 19 6 10 1024.5 1024.4 0.0
26/04:30pm 22.4 19.9 9.6 44 6.9 SSW 13 22 7 12 1024.4 1024.3 0.0
26/04:00pm 22.4 20.2 10.9 48 6.3 SSW 13 22 7 12 1024.4 1024.3 0.0
26/03:30pm 23.8 21.6 10.8 44 7.2 SSW 13 24 7 13 1024.4 1024.3 0.0
26/03:00pm 24.0 21.1 11.0 44 7.2 SW 17 24 9 13 1024.3 1024.2 0.0
26/02:30pm 25.5 23.2 7.6 32 9.5 SSW 9 19 5 10 1024.2 1024.1 0.0
26/02:00pm 25.2 23.4 7.8 33 9.2 ESE 7 13 4 7 1024.3 1024.2 0.0
26/01:30pm 24.4 22.8 8.0 35 8.7 SSW 6 13 3 7 1024.6 1024.5 0.0
26/01:00pm 24.9 23.2 8.4 35 8.8 N 7 15 4 8 1024.9 1024.8 0.0
26/12:30pm 24.7 23.5 8.2 35 8.8 SSW 4 13 2 7 1025.4 1025.3 0.0
26/12:00pm 24.1 23.4 8.5 37 8.3 NNE 2 9 1 5 1025.9 1025.8 0.0

Other Formats:

Comma delimited format used in spreadsheet applications
http://www.bom.gov.au/fwo/IDW60801/IDW60801.94608.axf

JavaScript Object Notation format (JSON) in row-major order
http://www.bom.gov.au/fwo/IDW60801/IDW60801.94608.json